Airfield :
LOGIN :

Register | Disclaimer

   EN    FR    IT 

 










Legend :    VFR   Marginal VFR   IFR   Intensive IFR   Very Intensive IFR
Visi :
Ceiling :
>= 8 km
>= 3000ft
5 to 8 km
1000 to 3000 ft
1500m to 5 km
500 to 1000 ft
800 to 1500m
200 to 500 ft
< 800m
< 200 ft
Symbols :   Thunderstorms  Fog  Heavy snow  Heavy precipitations  Wind > 20 kt
SIGMETs :     Misc.  Thunderstorms  Icing  Turbulence  Mountain Waves  Volcanic Ashes






- Airport Elevation : 100 ft
- IATA code : DCI


LIED - Decimomannu Air Base

CURRENT METAR :
  • 280055Z 27002KT CAVOK 14/12 Q1025 RMK SKC VIS MIN 9999 WIND THR35 29002KT WIND THR17 /////KT BLU

EXPIRED METARs :
  • 272355Z 33003KT CAVOK 15/12 Q1025 RMK SKC VIS MIN 9999 WIND THR35 31002KT WIND THR17 /////KT BLU
  • 272255Z 07005KT CAVOK 15/12 Q1025 RMK SKC VIS MIN 9999 WIND THR35 10004KT WIND THR17 /////KT BLU

TAF TAF LIED
Valid from the 28 at 00:00 until the 28 at 09:00 UTC


272300Z 2800/2809 10005KT 9999 SCT035



MET'MAP, your aeronautical weather chart ! - Copyright ORBIFLY December 2007 - Disclaimer

ORBIFLY MET'MAP TEAM :

Programming & Development : Alexandra Zaïnal
Concept & original design : Baudouin d'Aumeries
Assistance for programming : Marc-Olivier Méhu
Technical & hardware support : Manuel Goepfert

Contact : metmap@orbifly.com




SOURCES & CREDITS :

   NOAA